createdAt,value
2023-05-21T00:01:54.444Z,97.90
2023-05-21T00:04:21.108Z,98.20
2023-05-21T00:06:47.735Z,98.60
2023-05-21T00:09:14.536Z,99.00
2023-05-21T00:11:41.582Z,99.00
2023-05-21T00:14:08.562Z,99.40
2023-05-21T00:16:35.640Z,99.70
2023-05-21T00:19:02.539Z,99.90
2023-05-21T00:21:29.962Z,99.90
2023-05-21T00:23:56.866Z,99.90
2023-05-21T00:26:24.275Z,99.90
2023-05-21T00:28:51.170Z,99.90
2023-05-21T00:31:17.924Z,99.90
2023-05-21T00:33:44.689Z,99.90
2023-05-21T00:36:14.691Z,99.90
2023-05-21T00:38:43.841Z,99.90
2023-05-21T00:41:11.112Z,99.90
2023-05-21T00:43:40.353Z,99.90
2023-05-21T00:46:07.107Z,99.90
2023-05-21T00:48:34.131Z,99.90
2023-05-21T00:51:01.236Z,99.90
2023-05-21T00:53:27.952Z,99.90
2023-05-21T00:55:54.885Z,99.90
2023-05-21T00:58:21.962Z,99.90
2023-05-21T01:00:49.006Z,99.90
2023-05-21T01:03:16.639Z,99.90
2023-05-21T01:05:45.375Z,99.90
2023-05-21T01:08:13.270Z,99.90
2023-05-21T01:10:39.909Z,99.90
2023-05-21T01:13:06.540Z,99.90
2023-05-21T01:15:33.543Z,99.90
2023-05-21T01:18:00.593Z,99.90
2023-05-21T01:20:27.470Z,99.90
2023-05-21T01:22:54.188Z,99.90
2023-05-21T01:25:20.815Z,99.90
2023-05-21T01:27:47.878Z,99.90
2023-05-21T01:30:14.698Z,99.90
2023-05-21T01:32:41.538Z,99.90
2023-05-21T01:35:08.770Z,99.90
2023-05-21T01:37:35.563Z,99.90
2023-05-21T01:40:03.176Z,99.90
2023-05-21T01:42:30.167Z,99.90
2023-05-21T01:44:57.069Z,99.90
2023-05-21T01:47:23.828Z,99.90
2023-05-21T01:49:50.603Z,99.90
2023-05-21T01:52:17.584Z,99.90
2023-05-21T01:54:44.652Z,99.90
2023-05-21T01:57:11.329Z,99.90
2023-05-21T01:59:38.880Z,99.90
2023-05-21T02:02:05.924Z,99.90
2023-05-21T02:04:32.896Z,99.90
2023-05-21T02:06:59.671Z,99.90
2023-05-21T02:09:26.335Z,99.90
2023-05-21T02:11:53.352Z,99.90
2023-05-21T02:14:20.924Z,99.90
2023-05-21T02:16:47.957Z,99.90
2023-05-21T02:19:14.990Z,99.90
2023-05-21T02:21:42.187Z,99.90
2023-05-21T02:24:08.929Z,99.90
2023-05-21T02:26:35.974Z,99.90
2023-05-21T02:29:03.146Z,99.90
2023-05-21T02:31:30.166Z,99.90
2023-05-21T02:33:56.955Z,99.90
2023-05-21T02:36:25.324Z,99.90
2023-05-21T02:38:53.167Z,99.90
2023-05-21T02:41:20.046Z,99.90
2023-05-21T02:43:46.739Z,99.90
2023-05-21T02:46:13.498Z,99.90
2023-05-21T02:48:40.416Z,99.90
2023-05-21T02:51:07.134Z,99.90
2023-05-21T02:53:33.866Z,99.90
2023-05-21T02:56:00.817Z,99.90
2023-05-21T02:58:27.715Z,99.90
2023-05-21T03:00:54.782Z,99.90
2023-05-21T03:03:21.948Z,99.90
2023-05-21T03:05:48.828Z,99.90
2023-05-21T03:08:15.986Z,99.90
2023-05-21T03:10:42.636Z,99.90
2023-05-21T03:13:09.995Z,99.90
2023-05-21T03:15:39.317Z,99.90
2023-05-21T03:18:06.330Z,99.90
2023-05-21T03:20:33.534Z,99.90
2023-05-21T03:23:00.735Z,99.90
2023-05-21T03:25:27.476Z,99.90
2023-05-21T03:27:54.153Z,99.90
2023-05-21T03:30:20.804Z,99.90
2023-05-21T03:32:47.806Z,99.90
2023-05-21T03:35:14.500Z,99.90
2023-05-21T03:37:41.638Z,99.90
2023-05-21T03:40:08.733Z,99.90
2023-05-21T03:42:35.779Z,99.90
2023-05-21T03:45:02.803Z,99.90
2023-05-21T03:47:29.822Z,99.90
2023-05-21T03:49:56.871Z,99.90
2023-05-21T03:52:23.656Z,99.90
2023-05-21T03:54:50.610Z,99.90
2023-05-21T03:57:17.508Z,99.90
2023-05-21T03:59:44.162Z,99.90
2023-05-21T04:02:10.983Z,99.90
2023-05-21T04:04:37.732Z,99.90
2023-05-21T04:07:04.743Z,99.90
2023-05-21T04:09:31.412Z,99.90
2023-05-21T04:11:58.108Z,99.90
2023-05-21T04:14:24.750Z,99.90
2023-05-21T04:16:51.553Z,99.90
2023-05-21T04:19:18.305Z,99.90
2023-05-21T04:21:45.234Z,99.90
2023-05-21T04:24:12.280Z,99.90
2023-05-21T04:26:42.136Z,99.90
2023-05-21T04:29:08.803Z,99.90
2023-05-21T04:31:35.536Z,99.90
2023-05-21T04:34:02.280Z,99.90
2023-05-21T04:36:29.088Z,99.90
2023-05-21T04:38:55.874Z,99.90
2023-05-21T04:41:22.588Z,99.90
2023-05-21T04:43:49.735Z,99.90
2023-05-21T04:46:16.576Z,99.90
2023-05-21T04:48:43.690Z,99.90
2023-05-21T04:51:10.422Z,99.90
2023-05-21T04:53:37.178Z,99.90
2023-05-21T04:56:04.293Z,99.90
2023-05-21T04:58:33.315Z,99.90
2023-05-21T05:01:03.609Z,99.90
2023-05-21T05:03:30.897Z,99.90
2023-05-21T05:05:57.898Z,99.90
2023-05-21T05:08:24.884Z,99.90
2023-05-21T05:10:52.140Z,99.90
2023-05-21T05:13:19.186Z,99.90
2023-05-21T05:15:48.717Z,99.90
2023-05-21T05:18:16.643Z,99.90
2023-05-21T05:20:43.488Z,99.90
2023-05-21T05:23:10.416Z,99.90
2023-05-21T05:25:37.805Z,99.90
2023-05-21T05:28:04.567Z,99.90
2023-05-21T05:30:31.304Z,99.90
2023-05-21T05:32:58.268Z,99.90
2023-05-21T05:35:24.975Z,99.90
2023-05-21T05:37:51.742Z,99.90
2023-05-21T05:40:18.668Z,99.90
2023-05-21T05:42:45.680Z,99.90
2023-05-21T05:45:12.544Z,99.90
2023-05-21T05:47:39.212Z,99.90
2023-05-21T05:50:06.430Z,99.90
2023-05-21T05:52:33.613Z,99.90
2023-05-21T05:55:00.497Z,99.90
2023-05-21T05:57:27.490Z,99.90
2023-05-21T05:59:54.281Z,99.90
2023-05-21T06:02:20.985Z,99.90
2023-05-21T06:04:47.619Z,99.90
2023-05-21T06:07:14.295Z,99.90
2023-05-21T06:09:41.007Z,99.90
2023-05-21T06:12:08.668Z,99.90
2023-05-21T06:14:36.555Z,99.90
2023-05-21T06:17:03.204Z,99.90
2023-05-21T06:19:29.975Z,99.90
2023-05-21T06:21:56.703Z,99.90
2023-05-21T06:24:23.356Z,99.90
2023-05-21T06:26:50.351Z,99.90
2023-05-21T06:29:17.150Z,99.90
2023-05-21T06:31:43.758Z,99.90
2023-05-21T06:34:11.840Z,99.90
2023-05-21T06:36:38.465Z,99.90
2023-05-21T06:39:05.128Z,99.90
2023-05-21T06:41:32.073Z,99.90
2023-05-21T06:43:58.700Z,99.90
2023-05-21T06:46:25.534Z,99.90
2023-05-21T06:48:52.473Z,99.90
2023-05-21T06:51:19.132Z,99.90
2023-05-21T06:53:45.889Z,99.90
2023-05-21T06:56:13.289Z,99.90
2023-05-21T06:58:39.972Z,99.90
2023-05-21T07:01:06.812Z,99.90
2023-05-21T07:03:33.571Z,99.90
2023-05-21T07:06:00.234Z,99.90
2023-05-21T07:08:27.292Z,99.90
2023-05-21T07:10:53.970Z,99.90
2023-05-21T07:13:20.658Z,99.90
2023-05-21T07:15:47.314Z,99.90
2023-05-21T07:18:13.983Z,99.90
2023-05-21T07:20:40.667Z,99.90
2023-05-21T07:23:07.286Z,99.90
2023-05-21T07:25:34.008Z,99.90
2023-05-21T07:28:00.964Z,99.90
2023-05-21T07:30:27.593Z,99.90
2023-05-21T07:32:54.360Z,99.90
2023-05-21T07:35:21.169Z,99.90
2023-05-21T07:37:48.242Z,99.90
2023-05-21T07:40:15.013Z,99.90
2023-05-21T07:42:41.672Z,99.90
2023-05-21T07:45:08.291Z,99.90
2023-05-21T07:47:35.098Z,99.90
2023-05-21T07:50:01.786Z,99.90
2023-05-21T07:52:28.504Z,99.90
2023-05-21T07:54:55.206Z,99.90
2023-05-21T07:57:21.886Z,99.90
2023-05-21T07:59:48.526Z,99.90
2023-05-21T08:02:15.287Z,99.90
2023-05-21T08:04:42.532Z,99.90
2023-05-21T08:07:10.157Z,99.90
2023-05-21T08:09:36.882Z,99.90
2023-05-21T08:12:03.490Z,99.90
2023-05-21T08:14:30.239Z,99.90
2023-05-21T08:16:57.239Z,99.90
2023-05-21T08:19:23.946Z,99.90
2023-05-21T08:21:52.821Z,99.90
2023-05-21T08:24:19.808Z,99.90
2023-05-21T08:26:47.520Z,99.90
2023-05-21T08:29:14.162Z,99.10
2023-05-21T08:31:41.642Z,98.80
2023-05-21T08:34:08.317Z,97.60
2023-05-21T08:36:35.280Z,96.40
2023-05-21T08:39:01.891Z,96.40
2023-05-21T08:41:28.586Z,97.20
2023-05-21T08:43:55.694Z,96.30
2023-05-21T08:46:22.659Z,96.50
2023-05-21T08:48:49.410Z,96.70
2023-05-21T08:51:16.051Z,96.60
2023-05-21T08:53:42.729Z,96.30
2023-05-21T08:56:09.598Z,96.00
2023-05-21T08:58:36.486Z,95.60
2023-05-21T09:01:04.668Z,96.20
2023-05-21T09:03:33.122Z,95.70
2023-05-21T09:05:59.822Z,94.90
2023-05-21T09:08:26.487Z,94.30
2023-05-21T09:10:53.142Z,93.60
2023-05-21T09:13:19.955Z,92.60
2023-05-21T09:15:46.944Z,92.80
2023-05-21T09:18:13.638Z,92.40
2023-05-21T09:20:40.300Z,91.90
2023-05-21T09:23:07.206Z,91.00
2023-05-21T09:25:34.462Z,90.60
2023-05-21T09:28:01.221Z,90.00
2023-05-21T09:30:29.735Z,86.00
2023-05-21T09:32:57.323Z,85.20
2023-05-21T09:35:24.014Z,83.80
2023-05-21T09:37:50.876Z,85.00
2023-05-21T09:40:17.708Z,84.90
2023-05-21T09:42:44.408Z,85.50
2023-05-21T09:45:11.471Z,83.10
2023-05-21T09:47:38.186Z,83.10
2023-05-21T09:50:05.008Z,86.10
2023-05-21T09:52:32.359Z,85.40
2023-05-21T09:54:58.971Z,84.00
2023-05-21T09:57:25.659Z,83.10
2023-05-21T09:59:52.736Z,84.90
2023-05-21T10:02:19.428Z,85.10
2023-05-21T10:04:46.220Z,85.80
2023-05-21T10:07:12.935Z,85.00
2023-05-21T10:09:39.709Z,86.70
2023-05-21T10:12:06.869Z,86.80
2023-05-21T10:14:34.164Z,86.70
2023-05-21T10:17:00.870Z,86.40
2023-05-21T10:19:27.819Z,87.00
2023-05-21T10:21:54.632Z,87.70
2023-05-21T10:24:21.292Z,86.10
2023-05-21T10:26:48.030Z,85.50
2023-05-21T10:29:15.624Z,82.30
2023-05-21T10:31:44.117Z,84.50
2023-05-21T10:34:10.861Z,82.00
2023-05-21T10:36:37.572Z,82.50
2023-05-21T10:39:04.389Z,80.70
2023-05-21T10:41:31.410Z,83.10
2023-05-21T10:43:58.446Z,83.70
2023-05-21T10:46:25.095Z,83.70
2023-05-21T10:48:51.950Z,84.00
2023-05-21T10:51:18.664Z,83.60
2023-05-21T10:53:45.319Z,83.80
2023-05-21T10:56:11.995Z,83.20
2023-05-21T10:58:38.814Z,82.80
2023-05-21T11:01:05.733Z,81.60
2023-05-21T11:03:34.336Z,81.00
2023-05-21T11:06:03.457Z,81.30
2023-05-21T11:08:37.308Z,80.50
2023-05-21T11:11:04.149Z,81.70
2023-05-21T11:13:31.439Z,79.80
2023-05-21T11:15:58.471Z,77.60
2023-05-21T11:18:25.140Z,77.40
2023-05-21T11:20:52.222Z,74.60
2023-05-21T11:23:18.887Z,77.10
2023-05-21T11:25:45.548Z,74.80
2023-05-21T11:28:15.366Z,72.70
2023-05-21T11:30:42.345Z,74.80
2023-05-21T11:33:12.302Z,73.60
2023-05-21T11:35:39.143Z,75.00
2023-05-21T11:38:06.126Z,74.50
2023-05-21T11:40:33.138Z,72.30
2023-05-21T11:42:59.808Z,71.90
2023-05-21T11:45:26.722Z,71.80
2023-05-21T11:47:53.717Z,73.10
2023-05-21T11:50:20.886Z,73.50
2023-05-21T11:52:47.742Z,75.00
2023-05-21T11:55:15.818Z,73.30
2023-05-21T11:57:42.875Z,73.20
2023-05-21T12:00:14.218Z,73.90
2023-05-21T12:02:41.021Z,74.40
2023-05-21T12:05:10.169Z,73.70
2023-05-21T12:07:37.206Z,72.80
2023-05-21T12:10:03.852Z,73.60
2023-05-21T12:12:38.820Z,72.50
2023-05-21T12:15:13.555Z,69.70
2023-05-21T12:17:40.828Z,71.40
2023-05-21T12:20:08.366Z,72.00
2023-05-21T12:22:35.010Z,68.80
2023-05-21T12:25:02.128Z,68.30
2023-05-21T12:27:31.222Z,65.80
2023-05-21T12:29:58.679Z,67.40
2023-05-21T12:32:25.365Z,68.00
2023-05-21T12:34:52.685Z,69.30
2023-05-21T12:37:19.489Z,68.40
2023-05-21T12:39:46.244Z,63.60
2023-05-21T12:42:12.944Z,63.90
2023-05-21T12:44:39.746Z,62.80
2023-05-21T12:47:06.501Z,63.90
2023-05-21T12:49:33.161Z,64.10
2023-05-21T12:51:59.932Z,64.10
2023-05-21T12:54:26.585Z,64.40
2023-05-21T12:56:53.234Z,65.40
2023-05-21T12:59:19.916Z,66.10
2023-05-21T13:01:46.684Z,67.30
2023-05-21T13:04:13.437Z,67.30
2023-05-21T13:06:40.128Z,70.30
2023-05-21T13:09:06.814Z,68.90
2023-05-21T13:11:33.459Z,70.00
2023-05-21T13:14:00.382Z,70.90
2023-05-21T13:16:27.085Z,68.80
2023-05-21T13:18:53.895Z,69.90
2023-05-21T13:21:20.752Z,69.30
2023-05-21T13:23:47.749Z,68.50
2023-05-21T13:26:14.410Z,69.10
2023-05-21T13:28:42.764Z,67.20
2023-05-21T13:31:09.917Z,69.20
2023-05-21T13:33:36.879Z,69.00
2023-05-21T13:36:03.709Z,70.00
2023-05-21T13:38:30.405Z,70.90
2023-05-21T13:40:57.112Z,73.80
2023-05-21T13:43:23.785Z,71.20
2023-05-21T13:45:51.807Z,70.30
2023-05-21T13:48:18.615Z,71.30
2023-05-21T13:50:46.025Z,71.90
2023-05-21T13:53:12.786Z,72.30
2023-05-21T13:55:39.475Z,73.50
2023-05-21T13:58:06.369Z,70.70
2023-05-21T14:00:33.010Z,71.40
2023-05-21T14:02:59.829Z,70.30
2023-05-21T14:05:26.642Z,72.10
2023-05-21T14:07:53.275Z,71.60
2023-05-21T14:10:20.745Z,70.60
2023-05-21T14:12:47.418Z,71.00
2023-05-21T14:15:14.116Z,71.20
2023-05-21T14:17:42.376Z,71.40
2023-05-21T14:20:09.533Z,72.20
2023-05-21T14:22:36.277Z,71.00
2023-05-21T14:25:03.408Z,71.40
2023-05-21T14:27:30.057Z,70.90
2023-05-21T14:29:56.735Z,72.60
2023-05-21T14:32:23.533Z,71.90
2023-05-21T14:34:50.278Z,71.80
2023-05-21T14:37:17.166Z,72.30
2023-05-21T14:39:44.076Z,72.20
2023-05-21T14:42:10.691Z,72.20
2023-05-21T14:44:37.353Z,72.90
2023-05-21T14:47:04.044Z,72.10
2023-05-21T14:49:30.784Z,71.90
2023-05-21T14:51:57.462Z,73.00
2023-05-21T14:54:24.106Z,73.60
2023-05-21T14:56:50.890Z,74.50
2023-05-21T14:59:17.620Z,73.30
2023-05-21T15:01:44.291Z,73.10
2023-05-21T15:04:11.449Z,74.60
2023-05-21T15:06:38.263Z,76.50
2023-05-21T15:09:04.995Z,74.90
2023-05-21T15:11:33.954Z,74.00
2023-05-21T15:14:00.738Z,74.40
2023-05-21T15:16:27.596Z,75.70
2023-05-21T15:18:54.424Z,74.50
2023-05-21T15:21:21.134Z,74.70
2023-05-21T15:23:47.997Z,75.60
2023-05-21T15:26:14.709Z,76.80
2023-05-21T15:28:41.523Z,76.40
2023-05-21T15:31:08.214Z,74.80
2023-05-21T15:33:34.851Z,74.80
2023-05-21T15:36:01.560Z,74.50
2023-05-21T15:38:28.270Z,76.30
2023-05-21T15:40:55.385Z,76.00
2023-05-21T15:43:22.042Z,72.80
2023-05-21T15:45:48.673Z,74.70
2023-05-21T15:48:19.916Z,73.70
2023-05-21T15:50:46.914Z,73.90
2023-05-21T15:53:13.679Z,75.80
2023-05-21T15:55:40.530Z,75.70
2023-05-21T15:58:07.400Z,78.30
2023-05-21T16:00:34.180Z,77.10
2023-05-21T16:03:01.039Z,75.90
2023-05-21T16:05:27.810Z,75.00
2023-05-21T16:07:54.493Z,76.30
2023-05-21T16:10:21.136Z,76.70
2023-05-21T16:12:48.248Z,76.80
2023-05-21T16:15:14.878Z,77.60
2023-05-21T16:17:41.723Z,78.10
2023-05-21T16:20:08.359Z,77.50
2023-05-21T16:22:35.067Z,77.70
2023-05-21T16:25:01.696Z,76.40
2023-05-21T16:27:28.522Z,77.30
2023-05-21T16:29:55.184Z,77.20
2023-05-21T16:32:22.104Z,77.70
2023-05-21T16:34:48.977Z,77.70
2023-05-21T16:37:15.676Z,80.30
2023-05-21T16:39:42.338Z,78.80
2023-05-21T16:42:09.046Z,81.10
2023-05-21T16:44:37.757Z,80.50
2023-05-21T16:47:04.480Z,80.40
2023-05-21T16:49:31.154Z,80.80
2023-05-21T16:51:57.819Z,80.40
2023-05-21T16:54:24.705Z,80.30
2023-05-21T16:56:51.424Z,80.90
2023-05-21T16:59:18.556Z,82.80
2023-05-21T17:01:45.365Z,81.90
2023-05-21T17:04:12.123Z,82.00
2023-05-21T17:06:38.825Z,81.20
2023-05-21T17:09:05.557Z,81.60
2023-05-21T17:11:32.315Z,81.80
2023-05-21T17:13:59.018Z,82.40
2023-05-21T17:16:25.753Z,81.60
2023-05-21T17:18:52.472Z,81.80
2023-05-21T17:21:19.547Z,82.30
2023-05-21T17:23:46.345Z,83.00
2023-05-21T17:26:13.970Z,82.50
2023-05-21T17:28:40.734Z,83.50
2023-05-21T17:31:07.525Z,82.90
2023-05-21T17:33:34.242Z,83.80
2023-05-21T17:36:02.169Z,84.20
2023-05-21T17:38:28.808Z,86.00
2023-05-21T17:40:55.755Z,85.50
2023-05-21T17:43:23.089Z,85.90
2023-05-21T17:45:50.000Z,86.60
2023-05-21T17:48:16.778Z,87.30
2023-05-21T17:50:45.340Z,87.40
2023-05-21T17:53:13.063Z,87.10
2023-05-21T17:55:39.778Z,87.10
2023-05-21T17:58:06.606Z,87.00
2023-05-21T18:00:33.544Z,88.00
2023-05-21T18:03:01.197Z,87.30
2023-05-21T18:05:27.870Z,87.90
2023-05-21T18:07:54.515Z,87.70
2023-05-21T18:10:21.244Z,87.90
2023-05-21T18:12:47.982Z,87.50
2023-05-21T18:15:15.312Z,86.30
2023-05-21T18:17:42.029Z,85.50
2023-05-21T18:20:08.767Z,86.70
2023-05-21T18:22:36.728Z,87.00
2023-05-21T18:25:03.410Z,87.70
2023-05-21T18:27:30.287Z,88.20
2023-05-21T18:29:57.063Z,87.00
2023-05-21T18:32:23.755Z,86.60
2023-05-21T18:34:50.493Z,87.50
2023-05-21T18:37:17.642Z,87.70
2023-05-21T18:39:44.452Z,86.60
2023-05-21T18:42:13.315Z,86.60
2023-05-21T18:44:40.509Z,86.20
2023-05-21T18:47:07.868Z,85.40
2023-05-21T18:49:36.089Z,83.60
2023-05-21T18:52:03.181Z,82.90
2023-05-21T18:54:29.802Z,82.90
2023-05-21T18:56:59.781Z,82.10
2023-05-21T18:59:26.679Z,82.40
2023-05-21T19:01:53.376Z,82.60
2023-05-21T19:04:20.069Z,82.00
2023-05-21T19:06:47.204Z,82.90
2023-05-21T19:09:13.870Z,82.10
2023-05-21T19:11:40.639Z,82.40
2023-05-21T19:14:07.298Z,82.80
2023-05-21T19:16:34.070Z,82.80
2023-05-21T19:19:00.905Z,83.50
2023-05-21T19:21:27.605Z,83.90
2023-05-21T19:23:54.281Z,82.10
2023-05-21T19:26:21.387Z,82.60
2023-05-21T19:28:53.019Z,82.40
2023-05-21T19:31:20.094Z,83.50
2023-05-21T19:33:46.927Z,82.70
2023-05-21T19:36:13.802Z,82.50
2023-05-21T19:38:40.885Z,82.30
2023-05-21T19:41:07.581Z,82.00
2023-05-21T19:43:34.496Z,82.70
2023-05-21T19:46:01.358Z,83.00
2023-05-21T19:48:31.036Z,83.40
2023-05-21T19:50:58.011Z,83.70
2023-05-21T19:53:24.750Z,84.80
2023-05-21T19:55:51.467Z,85.30
2023-05-21T19:58:23.449Z,84.90
2023-05-21T20:00:50.812Z,85.00
2023-05-21T20:03:17.611Z,86.10
2023-05-21T20:05:44.346Z,85.10
2023-05-21T20:08:11.028Z,86.20
2023-05-21T20:10:37.981Z,86.10
2023-05-21T20:13:04.773Z,85.50
2023-05-21T20:15:31.394Z,85.50
2023-05-21T20:17:59.123Z,87.20
2023-05-21T20:20:26.809Z,86.50
2023-05-21T20:22:53.530Z,86.80
2023-05-21T20:25:20.194Z,87.10
2023-05-21T20:27:47.023Z,86.30
2023-05-21T20:30:13.656Z,87.80
2023-05-21T20:32:40.384Z,88.50
2023-05-21T20:35:08.827Z,89.00
2023-05-21T20:37:36.861Z,87.60
2023-05-21T20:40:05.210Z,88.60
2023-05-21T20:42:34.807Z,89.30
2023-05-21T20:45:01.894Z,89.70
2023-05-21T20:47:30.164Z,90.10
2023-05-21T20:49:57.742Z,89.70
2023-05-21T20:52:24.945Z,88.60
2023-05-21T20:54:54.630Z,89.00
2023-05-21T20:57:22.481Z,89.80
2023-05-21T20:59:49.098Z,88.50
2023-05-21T21:02:15.716Z,88.30
2023-05-21T21:04:42.379Z,88.00
2023-05-21T21:07:10.150Z,87.20
2023-05-21T21:09:37.318Z,87.90
2023-05-21T21:12:14.410Z,87.80
2023-05-21T21:14:50.541Z,87.50
2023-05-21T21:17:17.216Z,87.70
2023-05-21T21:19:43.809Z,89.10
2023-05-21T21:22:10.638Z,88.30
2023-05-21T21:24:37.285Z,88.60
2023-05-21T21:27:03.945Z,89.00
2023-05-21T21:29:30.639Z,89.50
2023-05-21T21:31:57.344Z,89.50
2023-05-21T21:34:25.238Z,89.80
2023-05-21T21:36:51.980Z,90.00
2023-05-21T21:39:18.649Z,88.60
2023-05-21T21:41:45.739Z,88.70
2023-05-21T21:44:12.438Z,89.00
2023-05-21T21:46:39.139Z,89.30
2023-05-21T21:49:05.813Z,89.00
2023-05-21T21:51:32.458Z,89.10
2023-05-21T21:53:59.210Z,89.40
2023-05-21T21:56:26.213Z,89.70
2023-05-21T21:58:53.422Z,89.70
2023-05-21T22:01:20.270Z,89.70
2023-05-21T22:03:47.300Z,90.00
2023-05-21T22:06:13.953Z,90.40
2023-05-21T22:08:40.888Z,90.90
2023-05-21T22:11:07.672Z,90.90
2023-05-21T22:13:34.444Z,90.80
2023-05-21T22:16:02.119Z,91.00
2023-05-21T22:18:40.201Z,91.50
2023-05-21T22:21:09.740Z,91.40
2023-05-21T22:23:36.726Z,91.90
2023-05-21T22:26:03.544Z,91.70
2023-05-21T22:28:30.193Z,91.90
2023-05-21T22:30:56.899Z,92.30
2023-05-21T22:33:23.593Z,92.50
2023-05-21T22:35:50.317Z,92.60
2023-05-21T22:38:17.861Z,92.60
2023-05-21T22:40:44.550Z,92.90
2023-05-21T22:43:11.375Z,93.20
2023-05-21T22:45:38.435Z,93.50
2023-05-21T22:48:07.411Z,93.80
2023-05-21T22:50:34.191Z,94.10
2023-05-21T22:53:00.846Z,94.60
2023-05-21T22:55:27.506Z,95.00
2023-05-21T22:57:54.161Z,95.40
2023-05-21T23:00:20.881Z,95.80
2023-05-21T23:02:47.667Z,96.60
2023-05-21T23:05:14.364Z,96.80
2023-05-21T23:07:41.453Z,97.50
2023-05-21T23:10:08.133Z,98.00
2023-05-21T23:12:34.752Z,98.10
2023-05-21T23:15:01.421Z,98.60
2023-05-21T23:17:28.059Z,98.90
2023-05-21T23:19:54.720Z,99.30
2023-05-21T23:22:22.120Z,99.20
2023-05-21T23:24:48.977Z,99.20
2023-05-21T23:27:15.610Z,99.20
2023-05-21T23:29:42.249Z,99.30
2023-05-21T23:32:09.125Z,99.60
2023-05-21T23:34:35.941Z,99.80
2023-05-21T23:37:02.618Z,99.90
2023-05-21T23:39:29.594Z,99.70
2023-05-21T23:41:56.403Z,99.90
2023-05-21T23:44:23.222Z,99.60
2023-05-21T23:46:50.229Z,99.80
2023-05-21T23:49:17.010Z,99.90
2023-05-21T23:51:43.693Z,99.90
2023-05-21T23:54:10.327Z,99.90
2023-05-21T23:56:36.943Z,99.90
2023-05-21T23:59:03.565Z,99.90
